Aztec, New Mexico
Current Conditions -  °F | °C
As of 12:53 PM on Tuesday 21 Oct 2014 (Local Time) from KFMN Reporting Station
Overcast Overcast  
Wind Chill: 65°   Ceiling: 9000
Heat Index: 65°   Visibility: 10mi
Dew Point: 44°   Wind: 3mph
Humidity: 47%   Direction: NA
Pressure: 30.11"   Gusts: NA
Location:  36.83°N, 107.99°W
Report Text: KFMN 211853Z VRB03KT 10SM FEW047 BKN090 OVC110 18/07 A3011 RMK AO2 SLP156 T01830067
Loading
Personal Weather Stations






























Interactive Weather Map
Tropical Storm Tracking
New forecast layout! Learn more

10-Day Weather Forecast

Advertisements
Track Severe Weather on mobile